createdAt,value
2022-08-29T00:00:41.328Z,96117.97
2022-08-29T00:02:44.136Z,96126.09
2022-08-29T00:04:46.923Z,96120.22
2022-08-29T00:06:49.776Z,96127.56
2022-08-29T00:08:54.167Z,96121.69
2022-08-29T00:10:56.972Z,96131.59
2022-08-29T00:13:00.308Z,96116.84
2022-08-29T00:15:03.609Z,96122.91
2022-08-29T00:17:06.428Z,96116.31
2022-08-29T00:19:09.253Z,96122.84
2022-08-29T00:21:12.368Z,95799.31
2022-08-29T00:23:15.269Z,96117.13
2022-08-29T00:25:19.401Z,95613.03
2022-08-29T00:27:22.164Z,96061.88
2022-08-29T00:29:25.012Z,96117.34
2022-08-29T00:31:28.423Z,96122.09
2022-08-29T00:33:31.568Z,96123.06
2022-08-29T00:35:37.826Z,96127.13
2022-08-29T00:37:40.896Z,96113.19
2022-08-29T00:39:43.700Z,96120.75
2022-08-29T00:41:47.853Z,96123.50
2022-08-29T00:43:50.533Z,96119.47
2022-08-29T00:46:03.345Z,96116.41
2022-08-29T00:48:09.671Z,96101.41
2022-08-29T00:50:18.429Z,96112.38
2022-08-29T00:52:28.715Z,96114.50
2022-08-29T00:54:33.115Z,96122.66
2022-08-29T00:56:37.238Z,96117.69
2022-08-29T00:58:46.668Z,96119.22
2022-08-29T01:00:50.635Z,96119.84
2022-08-29T01:02:54.331Z,96118.66
2022-08-29T01:04:57.829Z,96124.94
2022-08-29T01:07:01.248Z,96121.63
2022-08-29T01:09:05.637Z,96123.88
2022-08-29T01:11:26.749Z,96131.16
2022-08-29T01:13:35.746Z,96121.13
2022-08-29T01:15:43.993Z,96130.06
2022-08-29T01:17:48.141Z,96122.53
2022-08-29T01:19:56.530Z,96113.53
2022-08-29T01:22:08.470Z,96115.19
2022-08-29T01:24:24.735Z,96116.63
2022-08-29T01:26:30.135Z,96118.03
2022-08-29T01:28:37.481Z,96111.69
2022-08-29T01:30:59.351Z,96129.22
2022-08-29T01:33:03.096Z,96118.28
2022-08-29T01:35:08.610Z,96124.00
2022-08-29T01:37:14.774Z,96120.03
2022-08-29T01:39:18.485Z,96124.50
2022-08-29T01:41:23.424Z,96001.63
2022-08-29T01:43:27.681Z,96124.19
2022-08-29T01:45:30.470Z,95960.94
2022-08-29T01:47:35.952Z,96123.28
2022-08-29T01:49:40.786Z,96134.19
2022-08-29T01:51:43.946Z,96128.94
2022-08-29T01:53:47.044Z,96130.13
2022-08-29T01:55:49.804Z,96134.13
2022-08-29T01:57:53.874Z,96128.22
2022-08-29T01:59:58.954Z,96129.38
2022-08-29T02:02:05.368Z,96141.56
2022-08-29T02:04:09.628Z,96131.78
2022-08-29T02:06:13.646Z,95980.16
2022-08-29T02:08:16.507Z,96127.03
2022-08-29T02:10:19.606Z,96135.59
2022-08-29T02:12:22.731Z,96118.28
2022-08-29T02:14:27.101Z,96130.19
2022-08-29T02:16:30.938Z,96126.72
2022-08-29T02:18:34.009Z,96122.72
2022-08-29T02:20:37.119Z,96123.00
2022-08-29T02:22:41.043Z,96126.44
2022-08-29T02:24:44.000Z,96129.03
2022-08-29T02:26:46.737Z,96118.09
2022-08-29T02:28:51.851Z,96124.06
2022-08-29T02:30:56.729Z,96129.84
2022-08-29T02:32:59.991Z,96084.56
2022-08-29T02:35:05.234Z,96120.44
2022-08-29T02:37:09.149Z,96119.69
2022-08-29T02:39:11.985Z,96093.81
2022-08-29T02:41:15.269Z,96121.28
2022-08-29T02:43:19.249Z,96116.84
2022-08-29T02:45:22.666Z,96111.00
2022-08-29T02:47:26.830Z,96105.31
2022-08-29T02:49:30.369Z,96111.59
2022-08-29T02:51:34.513Z,96090.28
2022-08-29T02:53:37.223Z,96109.94
2022-08-29T02:55:40.593Z,96113.13
2022-08-29T02:57:43.315Z,95934.59
2022-08-29T02:59:45.978Z,95857.16
2022-08-29T03:01:48.728Z,96115.41
2022-08-29T03:03:53.653Z,96128.06
2022-08-29T03:05:56.688Z,96117.59
2022-08-29T03:07:59.757Z,96113.56
2022-08-29T03:10:02.560Z,96113.09
2022-08-29T03:12:05.394Z,96106.53
2022-08-29T03:14:08.805Z,96031.41
2022-08-29T03:16:12.447Z,96114.50
2022-08-29T03:18:15.740Z,96114.88
2022-08-29T03:20:23.999Z,96115.16
2022-08-29T03:22:27.387Z,96106.72
2022-08-29T03:24:30.533Z,96097.97
2022-08-29T03:26:33.265Z,96109.28
2022-08-29T03:28:35.934Z,96076.72
2022-08-29T03:30:39.647Z,96109.53
2022-08-29T03:32:42.640Z,96082.81
2022-08-29T03:34:45.401Z,96114.16
2022-08-29T03:36:49.421Z,96118.31
2022-08-29T03:38:52.150Z,96119.19
2022-08-29T03:40:58.235Z,96118.13
2022-08-29T03:43:03.258Z,96105.59
2022-08-29T03:45:07.760Z,96113.03
2022-08-29T03:47:10.763Z,96061.53
2022-08-29T03:49:13.448Z,96073.22
2022-08-29T03:51:16.701Z,96120.06
2022-08-29T03:53:21.002Z,96122.13
2022-08-29T03:55:23.739Z,96127.22
2022-08-29T03:57:26.461Z,96113.88
2022-08-29T03:59:31.873Z,96127.75
2022-08-29T04:01:34.697Z,96126.72
2022-08-29T04:03:37.507Z,96129.78
2022-08-29T04:05:40.201Z,96119.97
2022-08-29T04:07:47.362Z,96122.00
2022-08-29T04:09:51.385Z,96123.88
2022-08-29T04:11:54.063Z,96131.56
2022-08-29T04:13:56.775Z,96131.78
2022-08-29T04:15:59.496Z,96132.41
2022-08-29T04:18:13.082Z,96125.31
2022-08-29T04:20:21.672Z,96136.56
2022-08-29T04:22:27.392Z,96125.00
2022-08-29T04:24:31.207Z,96129.06
2022-08-29T04:26:37.465Z,96115.22
2022-08-29T04:28:40.580Z,96128.56
2022-08-29T04:30:51.603Z,95994.31
2022-08-29T04:32:55.495Z,96135.22
2022-08-29T04:34:59.192Z,96128.94
2022-08-29T04:37:01.901Z,96129.56
2022-08-29T04:39:05.335Z,96127.56
2022-08-29T04:41:14.770Z,96130.00
2022-08-29T04:43:18.883Z,96110.59
2022-08-29T04:45:23.700Z,96122.22
2022-08-29T04:47:26.379Z,96133.06
2022-08-29T04:49:29.076Z,96125.81
2022-08-29T04:51:32.288Z,96133.75
2022-08-29T04:53:35.359Z,96126.97
2022-08-29T04:55:38.065Z,96133.34
2022-08-29T04:57:41.338Z,96137.25
2022-08-29T04:59:46.009Z,96145.41
2022-08-29T05:01:49.349Z,96141.75
2022-08-29T05:03:54.317Z,95622.19
2022-08-29T05:05:57.935Z,95807.59
2022-08-29T05:08:00.772Z,96146.53
2022-08-29T05:10:07.487Z,96163.97
2022-08-29T05:12:10.623Z,96155.88
2022-08-29T05:14:13.790Z,96160.09
2022-08-29T05:16:18.754Z,96141.19
2022-08-29T05:18:21.634Z,96161.28
2022-08-29T05:20:24.323Z,96156.44
2022-08-29T05:22:27.150Z,96164.84
2022-08-29T05:24:31.416Z,96162.66
2022-08-29T05:26:36.895Z,96159.19
2022-08-29T05:28:39.585Z,96155.63
2022-08-29T05:30:42.346Z,96169.94
2022-08-29T05:32:46.363Z,96159.66
2022-08-29T05:34:50.524Z,96151.56
2022-08-29T05:36:53.253Z,96148.84
2022-08-29T05:38:55.939Z,96163.75
2022-08-29T05:40:58.641Z,96170.34
2022-08-29T05:43:01.292Z,96169.94
2022-08-29T05:45:04.794Z,96169.63
2022-08-29T05:47:10.000Z,96122.91
2022-08-29T05:49:14.773Z,96176.56
2022-08-29T05:51:18.734Z,96178.41
2022-08-29T05:53:21.429Z,96167.91
2022-08-29T05:55:24.473Z,96170.31
2022-08-29T05:57:27.546Z,96177.25
2022-08-29T05:59:30.269Z,96193.75
2022-08-29T06:01:34.570Z,96181.44
2022-08-29T06:03:37.366Z,96189.06
2022-08-29T06:05:42.144Z,96001.75
2022-08-29T06:07:44.840Z,96188.38
2022-08-29T06:09:47.652Z,95751.94
2022-08-29T06:11:53.221Z,96146.97
2022-08-29T06:13:56.573Z,96187.13
2022-08-29T06:15:59.506Z,96193.81
2022-08-29T06:18:02.193Z,96198.44
2022-08-29T06:20:09.887Z,96195.72
2022-08-29T06:22:13.981Z,96200.22
2022-08-29T06:24:17.466Z,96201.09
2022-08-29T06:26:20.655Z,96202.00
2022-08-29T06:28:24.085Z,96198.84
2022-08-29T06:30:27.243Z,96192.22
2022-08-29T06:32:30.093Z,96200.28
2022-08-29T06:34:32.881Z,96193.09
2022-08-29T06:36:37.268Z,96206.13
2022-08-29T06:38:41.470Z,96199.03
2022-08-29T06:40:44.222Z,96205.50
2022-08-29T06:42:46.992Z,96207.28
2022-08-29T06:44:50.003Z,96209.63
2022-08-29T06:46:52.669Z,96214.06
2022-08-29T06:48:57.659Z,96122.81
2022-08-29T06:51:02.663Z,96205.91
2022-08-29T06:53:27.058Z,96200.25
2022-08-29T06:55:29.558Z,96209.88
2022-08-29T06:57:32.605Z,96130.25
2022-08-29T06:59:35.371Z,96215.66
2022-08-29T07:01:38.365Z,96219.59
2022-08-29T07:03:42.248Z,96097.13
2022-08-29T07:05:44.984Z,96217.81
2022-08-29T07:07:47.855Z,96209.53
2022-08-29T07:09:50.572Z,96216.63
2022-08-29T07:11:54.785Z,96220.03
2022-08-29T07:13:59.223Z,96214.88
2022-08-29T07:16:02.509Z,96191.97
2022-08-29T07:18:05.729Z,96218.41
2022-08-29T07:20:09.883Z,96223.63
2022-08-29T07:22:12.507Z,96219.69
2022-08-29T07:24:15.237Z,96220.97
2022-08-29T07:26:20.645Z,96227.75
2022-08-29T07:28:24.650Z,96221.97
2022-08-29T07:30:28.340Z,96245.00
2022-08-29T07:32:31.307Z,96219.13
2022-08-29T07:34:34.203Z,96223.34
2022-08-29T07:36:37.719Z,96193.69
2022-08-29T07:38:40.580Z,96099.94
2022-08-29T07:40:43.757Z,96221.78
2022-08-29T07:42:46.586Z,96222.28
2022-08-29T07:44:50.709Z,96220.03
2022-08-29T07:46:55.838Z,96225.88
2022-08-29T07:49:00.109Z,96226.00
2022-08-29T07:51:06.070Z,96227.38
2022-08-29T07:53:11.231Z,96231.72
2022-08-29T07:55:14.680Z,96226.97
2022-08-29T07:57:18.313Z,96232.66
2022-08-29T07:59:22.646Z,96234.16
2022-08-29T08:01:27.656Z,96227.72
2022-08-29T08:03:30.532Z,96230.69
2022-08-29T08:05:33.314Z,96225.09
2022-08-29T08:07:36.799Z,96225.72
2022-08-29T08:09:43.016Z,96221.25
2022-08-29T08:11:45.765Z,96214.72
2022-08-29T08:13:49.052Z,96060.81
2022-08-29T08:15:51.803Z,96218.31
2022-08-29T08:17:55.953Z,96220.41
2022-08-29T08:19:58.692Z,96223.47
2022-08-29T08:22:01.613Z,96225.41
2022-08-29T08:24:04.789Z,96226.88
2022-08-29T08:26:09.714Z,96233.66
2022-08-29T08:28:14.583Z,96223.53
2022-08-29T08:30:17.953Z,96226.25
2022-08-29T08:32:21.932Z,96231.06
2022-08-29T08:34:26.671Z,96230.28
2022-08-29T08:36:31.840Z,96231.38
2022-08-29T08:38:34.661Z,96230.78
2022-08-29T08:40:44.063Z,96235.25
2022-08-29T08:42:46.869Z,96238.78
2022-08-29T08:45:00.548Z,96230.22
2022-08-29T08:47:08.777Z,96234.69
2022-08-29T08:49:20.078Z,96240.28
2022-08-29T08:51:29.003Z,96239.06
2022-08-29T08:53:36.967Z,96170.09
2022-08-29T08:55:43.454Z,96236.69
2022-08-29T08:57:54.075Z,96241.09
2022-08-29T08:59:59.027Z,96237.50
2022-08-29T09:02:07.428Z,96240.88
2022-08-29T09:04:28.401Z,96234.09
2022-08-29T09:06:48.294Z,96240.06
2022-08-29T09:09:00.364Z,96243.63
2022-08-29T09:11:09.632Z,96233.53
2022-08-29T09:13:22.493Z,96239.66
2022-08-29T09:15:32.974Z,96239.34
2022-08-29T09:17:42.346Z,96236.63
2022-08-29T09:19:46.382Z,96240.59
2022-08-29T09:21:55.218Z,96228.50
2022-08-29T09:24:00.666Z,96215.94
2022-08-29T09:26:03.471Z,96211.34
2022-08-29T09:28:08.220Z,96242.09
2022-08-29T09:30:15.114Z,96236.81
2022-08-29T09:32:22.305Z,96245.69
2022-08-29T09:34:56.963Z,96238.44
2022-08-29T09:36:59.867Z,96234.47
2022-08-29T09:39:14.874Z,96236.75
2022-08-29T09:41:30.601Z,96243.72
2022-08-29T09:43:48.117Z,96231.91
2022-08-29T09:46:23.302Z,96228.16
2022-08-29T09:48:26.195Z,96222.84
2022-08-29T09:50:28.975Z,96224.09
2022-08-29T09:52:33.323Z,96222.78
2022-08-29T09:54:36.149Z,96228.50
2022-08-29T09:56:40.906Z,96217.88
2022-08-29T09:58:44.370Z,96205.06
2022-08-29T10:01:01.403Z,96212.50
2022-08-29T10:03:07.438Z,96218.56
2022-08-29T10:05:13.454Z,96220.56
2022-08-29T10:07:21.177Z,96222.47
2022-08-29T10:09:29.167Z,96215.25
2022-08-29T10:11:38.808Z,96216.84
2022-08-29T10:13:46.896Z,96224.88
2022-08-29T10:15:55.432Z,96224.78
2022-08-29T10:18:24.472Z,96231.59
2022-08-29T10:20:41.706Z,96216.59
2022-08-29T10:22:49.675Z,96219.38
2022-08-29T10:25:03.478Z,96213.50
2022-08-29T10:27:17.394Z,96218.56
2022-08-29T10:29:39.260Z,96229.59
2022-08-29T10:31:51.516Z,96221.50
2022-08-29T10:34:32.533Z,96219.44
2022-08-29T10:36:39.243Z,96214.25
2022-08-29T10:38:47.966Z,96203.94
2022-08-29T10:40:58.566Z,96207.53
2022-08-29T10:43:34.028Z,96168.19
2022-08-29T10:45:47.150Z,96201.16
2022-08-29T10:47:54.131Z,96201.44
2022-08-29T10:50:27.571Z,96197.84
2022-08-29T10:52:44.410Z,96198.50
2022-08-29T10:55:07.646Z,96202.47
2022-08-29T10:57:19.670Z,96200.13
2022-08-29T10:59:31.906Z,96207.63
2022-08-29T11:01:40.288Z,96196.19
2022-08-29T11:03:49.100Z,96185.31
2022-08-29T11:05:58.479Z,96192.38
2022-08-29T11:08:09.781Z,96139.03
2022-08-29T11:10:18.775Z,96187.28
2022-08-29T11:12:35.215Z,96191.09
2022-08-29T11:14:41.700Z,96191.13
2022-08-29T11:16:48.610Z,96192.81
2022-08-29T11:18:57.052Z,96193.09
2022-08-29T11:21:04.842Z,96196.88
2022-08-29T11:23:18.314Z,96192.25
2022-08-29T11:25:22.046Z,96201.78
2022-08-29T11:27:36.164Z,96195.22
2022-08-29T11:29:46.621Z,96190.03
2022-08-29T11:31:57.668Z,96179.50
2022-08-29T11:34:16.380Z,96187.16
2022-08-29T11:36:44.234Z,96183.22
2022-08-29T11:39:06.240Z,96188.63
2022-08-29T11:41:31.473Z,96183.53
2022-08-29T11:43:43.069Z,96184.50
2022-08-29T11:45:57.928Z,96171.34
2022-08-29T11:48:03.555Z,96172.81
2022-08-29T11:50:22.755Z,96079.34
2022-08-29T11:52:27.905Z,96176.38
2022-08-29T11:54:50.591Z,96176.38
2022-08-29T11:57:34.213Z,96171.69
2022-08-29T12:00:01.146Z,96161.72
2022-08-29T12:02:04.237Z,96133.53
2022-08-29T12:04:08.469Z,96168.78
2022-08-29T12:06:22.665Z,96154.56
2022-08-29T12:08:37.429Z,96149.94
2022-08-29T12:10:54.115Z,96122.53
2022-08-29T12:12:58.631Z,96148.41
2022-08-29T12:15:02.887Z,96118.09
2022-08-29T12:17:09.694Z,96103.41
2022-08-29T12:19:12.669Z,96161.31
2022-08-29T12:21:34.150Z,96162.97
2022-08-29T12:23:38.146Z,96156.25
2022-08-29T12:28:51.778Z,96160.81
2022-08-29T12:31:07.344Z,96139.38
2022-08-29T12:33:26.572Z,96146.88
2022-08-29T12:35:48.624Z,96141.38
2022-08-29T12:38:07.884Z,96141.25
2022-08-29T12:40:31.727Z,96009.22
2022-08-29T12:42:46.910Z,96146.50
2022-08-29T12:45:00.662Z,96142.66
2022-08-29T12:47:09.540Z,96141.53
2022-08-29T12:49:22.002Z,96013.97
2022-08-29T12:51:43.686Z,96137.97
2022-08-29T12:53:50.752Z,95978.03
2022-08-29T12:55:55.739Z,96132.66
2022-08-29T12:57:59.183Z,96134.88
2022-08-29T13:00:05.401Z,96138.28
2022-08-29T13:02:23.299Z,96129.84
2022-08-29T13:04:31.954Z,96130.75
2022-08-29T13:06:35.342Z,96118.38
2022-08-29T13:08:38.364Z,96123.31
2022-08-29T13:10:53.287Z,96127.06
2022-08-29T13:13:05.479Z,96121.00
2022-08-29T13:15:18.484Z,96112.22
2022-08-29T13:17:26.812Z,96041.88
2022-08-29T13:19:29.573Z,96112.28
2022-08-29T13:21:34.221Z,96078.56
2022-08-29T13:23:39.489Z,96103.69
2022-08-29T13:25:49.440Z,96115.66
2022-08-29T13:28:01.612Z,96107.28
2022-08-29T13:30:05.501Z,96109.69
2022-08-29T13:32:24.434Z,96115.28
2022-08-29T13:34:27.360Z,96108.91
2022-08-29T13:36:31.244Z,96111.38
2022-08-29T13:38:34.962Z,96107.09
2022-08-29T13:40:44.107Z,96082.78
2022-08-29T13:42:46.940Z,96006.34
2022-08-29T13:45:01.051Z,96104.75
2022-08-29T13:47:13.402Z,96103.78
2022-08-29T13:49:22.632Z,96104.91
2022-08-29T13:51:25.410Z,96109.66
2022-08-29T13:53:28.220Z,96111.97
2022-08-29T13:55:31.166Z,96097.19
2022-08-29T13:57:34.758Z,96098.03
2022-08-29T13:59:39.275Z,96087.09
2022-08-29T14:04:34.173Z,96047.88
2022-08-29T14:06:32.920Z,96073.66
2022-08-29T14:08:35.721Z,96085.34
2022-08-29T14:10:38.644Z,96085.97
2022-08-29T14:12:41.592Z,96082.22
2022-08-29T14:14:45.781Z,96070.16
2022-08-29T14:16:51.264Z,96052.78
2022-08-29T14:18:54.657Z,96076.47
2022-08-29T14:20:57.421Z,96074.47
2022-08-29T14:23:01.677Z,95945.06
2022-08-29T14:25:04.959Z,96067.63
2022-08-29T14:27:07.872Z,95673.44
2022-08-29T14:29:11.510Z,96073.06
2022-08-29T14:31:14.552Z,96070.63
2022-08-29T14:33:20.163Z,96064.84
2022-08-29T14:35:26.408Z,96062.03
2022-08-29T14:37:34.659Z,96063.31
2022-08-29T14:39:38.826Z,96057.13
2022-08-29T14:41:42.394Z,96061.53
2022-08-29T14:43:45.242Z,96056.41
2022-08-29T14:45:48.139Z,95974.28
2022-08-29T14:47:51.082Z,96048.72
2022-08-29T14:49:53.809Z,96015.59
2022-08-29T14:51:56.581Z,96004.25
2022-08-29T14:53:59.372Z,95920.66
2022-08-29T14:56:04.030Z,96043.16
2022-08-29T14:58:06.971Z,95995.06
2022-08-29T15:00:14.071Z,96064.84
2022-08-29T15:02:17.002Z,96054.31
2022-08-29T15:04:22.711Z,96052.16
2022-08-29T15:06:39.690Z,95954.91
2022-08-29T15:08:43.647Z,96049.25
2022-08-29T15:10:46.452Z,96038.63
2022-08-29T15:12:50.750Z,96040.00
2022-08-29T15:14:54.010Z,96038.78
2022-08-29T15:16:56.784Z,96039.38
2022-08-29T15:19:45.178Z,96038.84
2022-08-29T15:21:22.536Z,96022.91
2022-08-29T15:23:26.185Z,96028.81
2022-08-29T15:25:28.986Z,95979.44
2022-08-29T15:27:32.546Z,95959.56
2022-08-29T15:29:40.512Z,96030.31
2022-08-29T15:31:43.310Z,96037.31
2022-08-29T15:33:46.045Z,96012.84
2022-08-29T15:35:48.806Z,96029.16
2022-08-29T15:37:54.199Z,95991.28
2022-08-29T15:39:58.030Z,96030.25
2022-08-29T15:42:03.063Z,96020.63
2022-08-29T15:44:05.799Z,96019.13
2022-08-29T15:46:11.485Z,96018.66
2022-08-29T15:48:14.603Z,96023.72
2022-08-29T15:50:17.429Z,96009.25
2022-08-29T15:52:20.176Z,96011.75
2022-08-29T15:54:23.443Z,95915.47
2022-08-29T15:56:26.484Z,95929.34
2022-08-29T15:58:29.290Z,96013.69
2022-08-29T16:00:32.373Z,95985.03
2022-08-29T16:02:36.525Z,96013.81
2022-08-29T16:04:42.648Z,96011.75
2022-08-29T16:06:45.609Z,96008.59
2022-08-29T16:08:48.364Z,96017.72
2022-08-29T16:10:58.184Z,96004.81
2022-08-29T16:13:01.409Z,95977.25
2022-08-29T16:15:09.420Z,95994.19
2022-08-29T16:17:14.120Z,95704.59
2022-08-29T16:19:18.743Z,95932.28
2022-08-29T16:21:24.029Z,95976.13
2022-08-29T16:23:26.842Z,95992.41
2022-08-29T16:25:31.034Z,95994.78
2022-08-29T16:27:34.107Z,95991.03
2022-08-29T16:29:36.864Z,95873.66
2022-08-29T16:31:39.820Z,95993.63
2022-08-29T16:33:43.098Z,95995.78
2022-08-29T16:35:47.430Z,96003.00
2022-08-29T16:38:02.801Z,95997.81
2022-08-29T16:40:08.375Z,95992.16
2022-08-29T16:42:12.290Z,95974.06
2022-08-29T16:44:15.109Z,95994.66
2022-08-29T16:46:18.348Z,95994.34
2022-08-29T16:48:21.291Z,95948.59
2022-08-29T16:50:24.450Z,95994.69
2022-08-29T16:52:29.319Z,95914.63
2022-08-29T16:54:33.245Z,95984.59
2022-08-29T16:56:36.142Z,95899.84
2022-08-29T16:58:56.892Z,96007.38
2022-08-29T17:01:00.206Z,95998.69
2022-08-29T17:03:03.089Z,96005.41
2022-08-29T17:05:06.826Z,96011.91
2022-08-29T17:07:09.593Z,95963.06
2022-08-29T17:09:12.822Z,95940.88
2022-08-29T17:11:14.606Z,96006.25
2022-08-29T17:13:16.295Z,96006.97
2022-08-29T17:15:18.006Z,96007.03
2022-08-29T17:17:20.809Z,96022.03
2022-08-29T17:19:24.670Z,96010.22
2022-08-29T17:21:28.001Z,95913.03
2022-08-29T17:23:32.517Z,96014.75
2022-08-29T17:25:36.678Z,96011.09
2022-08-29T17:27:39.544Z,96016.38
2022-08-29T17:29:43.085Z,95999.81
2022-08-29T17:31:46.097Z,95985.00
2022-08-29T17:33:49.358Z,95944.25
2022-08-29T17:35:52.128Z,96007.38
2022-08-29T17:37:54.945Z,96007.34
2022-08-29T17:39:58.612Z,95987.19
2022-08-29T17:42:04.929Z,95936.50
2022-08-29T17:44:09.922Z,96018.31
2022-08-29T17:46:12.920Z,96019.69
2022-08-29T17:48:15.903Z,95873.81
2022-08-29T17:50:19.752Z,95968.41
2022-08-29T17:52:22.664Z,96019.16
2022-08-29T17:54:26.481Z,96021.84
2022-08-29T17:56:41.940Z,96045.88
2022-08-29T17:58:49.091Z,96019.72
2022-08-29T18:00:54.573Z,96027.66
2022-08-29T18:02:57.886Z,96020.41
2022-08-29T18:05:00.903Z,96025.34
2022-08-29T18:07:04.942Z,96024.13
2022-08-29T18:09:08.326Z,96032.84
2022-08-29T18:11:12.704Z,96024.38
2022-08-29T18:13:19.746Z,96029.28
2022-08-29T18:15:26.132Z,96029.13
2022-08-29T18:17:28.889Z,96031.53
2022-08-29T18:19:31.671Z,96032.75
2022-08-29T18:21:34.905Z,96025.38
2022-08-29T18:23:38.386Z,96033.25
2022-08-29T18:25:41.243Z,96036.78
2022-08-29T18:27:44.058Z,96041.13
2022-08-29T18:29:47.697Z,96050.75
2022-08-29T18:31:51.806Z,96048.47
2022-08-29T18:34:00.730Z,96050.41
2022-08-29T18:36:07.136Z,96028.06
2022-08-29T18:38:10.199Z,96053.41
2022-08-29T18:40:13.562Z,96053.06
2022-08-29T18:42:36.900Z,96049.84
2022-08-29T18:44:41.144Z,96066.34
2022-08-29T18:46:47.758Z,96070.94
2022-08-29T18:48:52.897Z,95973.81
2022-08-29T18:50:55.326Z,95855.06
2022-08-29T18:52:58.104Z,96072.03
2022-08-29T18:55:00.853Z,96076.84
2022-08-29T18:57:03.707Z,96078.94
2022-08-29T18:59:06.519Z,96082.34
2022-08-29T19:01:13.913Z,96088.66
2022-08-29T19:03:16.800Z,96087.69
2022-08-29T19:05:21.864Z,96089.16
2022-08-29T19:07:24.655Z,96082.41
2022-08-29T19:09:27.410Z,96084.41
2022-08-29T19:11:30.198Z,95903.25
2022-08-29T19:13:33.404Z,96087.94
2022-08-29T19:15:41.458Z,96084.75
2022-08-29T19:17:44.851Z,96036.84
2022-08-29T19:20:01.513Z,96087.41
2022-08-29T19:22:05.718Z,96093.22
2022-08-29T19:24:08.541Z,96095.72
2022-08-29T19:26:14.411Z,96097.16
2022-08-29T19:28:19.725Z,96086.25
2022-08-29T19:30:24.010Z,95788.91
2022-08-29T19:32:27.749Z,96093.47
2022-08-29T19:34:31.657Z,96090.84
2022-08-29T19:36:34.937Z,96092.75
2022-08-29T19:38:41.449Z,96093.34
2022-08-29T19:40:44.327Z,96098.22
2022-08-29T19:42:47.897Z,96104.66
2022-08-29T19:44:50.764Z,96100.88
2022-08-29T19:46:53.545Z,96059.16
2022-08-29T19:48:56.491Z,96071.38
2022-08-29T19:50:59.307Z,96109.88
2022-08-29T19:53:02.456Z,95954.44
2022-08-29T19:55:10.434Z,96106.56
2022-08-29T19:57:14.611Z,96114.03
2022-08-29T19:59:18.086Z,96108.88
2022-08-29T20:01:21.571Z,96109.47
2022-08-29T20:03:24.500Z,96109.00
2022-08-29T20:05:27.722Z,96118.78
2022-08-29T20:07:30.640Z,96118.16
2022-08-29T20:09:34.529Z,96125.47
2022-08-29T20:11:40.040Z,96120.44
2022-08-29T20:13:50.483Z,96118.78
2022-08-29T20:15:54.261Z,96128.19
2022-08-29T20:17:57.522Z,96115.66
2022-08-29T20:20:00.543Z,96117.69
2022-08-29T20:22:03.976Z,96113.25
2022-08-29T20:24:07.471Z,96125.22
2022-08-29T20:26:10.219Z,96109.75
2022-08-29T20:28:15.889Z,96095.13
2022-08-29T20:30:23.144Z,96114.88
2022-08-29T20:32:25.942Z,96121.09
2022-08-29T20:34:30.424Z,96079.09
2022-08-29T20:36:50.592Z,96120.81
2022-08-29T20:38:53.318Z,96115.16
2022-08-29T20:40:56.096Z,96114.97
2022-08-29T20:42:59.174Z,96114.53
2022-08-29T20:45:04.743Z,96100.22
2022-08-29T20:47:10.273Z,96064.25
2022-08-29T20:49:18.583Z,96120.06
2022-08-29T20:51:23.743Z,96124.22
2022-08-29T20:53:32.071Z,96113.56
2022-08-29T20:55:36.542Z,96130.09
2022-08-29T20:57:40.295Z,96124.97
2022-08-29T20:59:44.152Z,96128.25
2022-08-29T21:01:49.559Z,96125.97
2022-08-29T21:04:09.875Z,96125.91
2022-08-29T21:06:13.151Z,96131.69
2022-08-29T21:08:18.343Z,96130.19
2022-08-29T21:10:21.217Z,96136.75
2022-08-29T21:12:27.388Z,96137.28
2022-08-29T21:14:30.389Z,96145.75
2022-08-29T21:16:33.193Z,96149.19
2022-08-29T21:18:37.410Z,96133.53
2022-08-29T21:20:44.857Z,96145.75
2022-08-29T21:23:00.523Z,96146.34
2022-08-29T21:25:03.395Z,96124.88
2022-08-29T21:27:06.560Z,96149.63
2022-08-29T21:29:09.889Z,96148.19
2022-08-29T21:31:15.353Z,96143.53
2022-08-29T21:33:18.286Z,96139.97
2022-08-29T21:35:23.273Z,95949.47
2022-08-29T21:37:26.161Z,96146.69
2022-08-29T21:39:29.295Z,96148.31
2022-08-29T21:41:33.863Z,96150.38
2022-08-29T21:43:37.136Z,96151.50
2022-08-29T21:45:39.888Z,96153.03
2022-08-29T21:47:42.655Z,96146.78
2022-08-29T21:49:45.538Z,96150.75
2022-08-29T21:51:50.160Z,96152.19
2022-08-29T21:53:55.474Z,96149.72
2022-08-29T21:55:58.232Z,96147.25
2022-08-29T21:58:01.790Z,96156.44
2022-08-29T22:00:06.112Z,96150.38
2022-08-29T22:02:08.946Z,96152.34
2022-08-29T22:04:19.454Z,96108.63
2022-08-29T22:06:33.241Z,96141.63
2022-08-29T22:08:37.797Z,96143.59
2022-08-29T22:10:41.138Z,96140.34
2022-08-29T22:12:43.969Z,96134.38
2022-08-29T22:15:04.189Z,96144.88
2022-08-29T22:17:07.045Z,96141.44
2022-08-29T22:19:12.080Z,96141.06
2022-08-29T22:21:15.555Z,96142.69
2022-08-29T22:23:20.313Z,96136.84
2022-08-29T22:25:25.195Z,96137.84
2022-08-29T22:27:27.971Z,96145.81
2022-08-29T22:29:30.706Z,96116.47
2022-08-29T22:31:33.911Z,96141.09
2022-08-29T22:33:36.730Z,96114.72
2022-08-29T22:35:39.508Z,96135.34
2022-08-29T22:37:42.632Z,96133.28
2022-08-29T22:39:45.415Z,96126.50
2022-08-29T22:41:49.468Z,96134.34
2022-08-29T22:44:16.794Z,96132.22
2022-08-29T22:46:24.644Z,96125.97
2022-08-29T22:48:27.451Z,96129.63
2022-08-29T22:50:30.180Z,96132.66
2022-08-29T22:52:33.076Z,95945.41
2022-08-29T22:54:35.749Z,96131.78
2022-08-29T22:56:41.348Z,96133.25
2022-08-29T22:58:45.437Z,96138.41
2022-08-29T23:00:48.673Z,96135.03
2022-08-29T23:02:52.926Z,96131.66
2022-08-29T23:04:55.735Z,96112.03
2022-08-29T23:06:58.567Z,96118.59
2022-08-29T23:09:01.325Z,96128.28
2022-08-29T23:11:04.056Z,96126.19
2022-08-29T23:13:06.848Z,96123.25
2022-08-29T23:15:14.781Z,96131.81
2022-08-29T23:17:18.607Z,96124.41
2022-08-29T23:19:21.349Z,96115.25
2022-08-29T23:21:24.803Z,96129.88
2022-08-29T23:23:27.634Z,96134.25
2022-08-29T23:25:30.693Z,96117.16
2022-08-29T23:27:34.529Z,96097.38
2022-08-29T23:29:42.051Z,96137.94
2022-08-29T23:31:46.424Z,96135.03
2022-08-29T23:33:49.481Z,96133.28
2022-08-29T23:35:52.350Z,96139.72
2022-08-29T23:37:55.097Z,96142.13
2022-08-29T23:39:57.888Z,96130.53
2022-08-29T23:42:00.697Z,96132.78
2022-08-29T23:44:03.838Z,96143.59
2022-08-29T23:46:07.646Z,96099.63
2022-08-29T23:48:11.803Z,96137.94
2022-08-29T23:50:15.028Z,96148.38
2022-08-29T23:52:18.119Z,96141.78
2022-08-29T23:54:20.881Z,96131.00
2022-08-29T23:56:24.349Z,96133.09
2022-08-29T23:58:27.165Z,96128.44
